Airfield :
LOGIN :

Register | Disclaimer

   EN    FR    IT 

 










Legend :    VFR   Marginal VFR   IFR   Intensive IFR   Very Intensive IFR
Visi :
Ceiling :
>= 8 km
>= 3000ft
5 to 8 km
1000 to 3000 ft
1500m to 5 km
500 to 1000 ft
800 to 1500m
200 to 500 ft
< 800m
< 200 ft
Symbols :   Thunderstorms  Fog  Heavy snow  Heavy precipitations  Wind > 20 kt
SIGMETs :     Misc.  Thunderstorms  Icing  Turbulence  Mountain Waves  Volcanic Ashes







- Airport Elevation : 1411 ft
- IATA code : SZG


LOWS - Salzburg

CURRENT METAR :
  • 180750Z 29005KT 9999 FEW020 SCT035 12/06 Q1025 NOSIG

EXPIRED METARs :
  • 180720Z 28005KT 9999 SCT025 BKN065 12/07 Q1024 NOSIG
  • 180650Z 30006KT 9999 FEW020 SCT030 BKN050 11/07 Q1024 NOSIG
  • 180620Z 32006KT 9999 SCT030 BKN045 11/06 Q1024 NOSIG
  • 180550Z 31008KT 9999 SCT030 BKN040 11/06 Q1024 NOSIG
  • 180520Z 32006KT 9999 SCT030 BKN045 11/07 Q1024 NOSIG

TAF TAF LOWS
Valid from the 18 at 06:00 until the 19 at 06:00 UTC


180515Z 1806/1906 33005KT 9999 SCT030 BKN045 TX16/1814Z TN06/1904Z
TEMPO 1809/1816 29010KT SCT050
BECMG 1816/1818 15005KT CAVOK
PROB40
TEMPO 1900/1906 1500 BCFG
No reported NOTAMs for that airfield.



MET'MAP, your aeronautical weather chart ! - Copyright ORBIFLY December 2007 - Disclaimer

ORBIFLY MET'MAP TEAM :

Programming & Development : Alexandra Zaïnal
Concept & Development : Baudouin d'Aumeries
Co-Development & Prog : Marc-Olivier Méhu
Technical & hardware support : Manuel Goepfert

Contact : metmap@orbifly.com




SOURCES & CREDITS :

   NOAA